Time;durP1;ratioP1;P1;durP2;ratioP2;P2;SDS_P1;SDS_P2;PMS_P1;PMS_P2;Temp;Humidity;BMP_temperature;BMP_pressure;BME280_temperature;BME280_humidity;BME280_pressure;Samples;Min_cycle;Max_cycle;Signal;HPM_P1;HPM_P2
2021/12/05 00:16:56;;;;;;;4.10;2.00;;;13.80;49.30;;;;;;4997941;28;20033;-37
2021/12/05 00:17:51;;;;;;;6.05;2.30;;;13.70;49.30;;;;;;4996992;28;20069;-37
2021/12/05 00:22:50;;;;;;;4.20;2.00;;;13.70;49.80;;;;;;4995693;28;20089;-37
2021/12/05 00:25:24;;;;;;;4.20;1.95;;;13.70;49.20;;;;;;4995859;28;20413;-39
2021/12/05 00:28:05;;;;;;;4.40;2.05;;;13.70;49.10;;;;;;4995993;28;20026;-38
2021/12/05 00:31:01;;;;;;;4.75;1.98;;;13.80;49.10;;;;;;5076206;28;20108;-38
2021/12/05 00:44:52;;;;;;;4.50;2.08;;;13.90;48.60;;;;;;5077852;28;20094;-37
2021/12/05 01:04:50;;;;;;;4.80;2.10;;;14.40;47.00;;;;;;5075500;28;20028;-37
2021/12/05 01:15:07;;;;;;;4.13;1.85;;;14.70;46.20;;;;;;5096117;28;20024;-38
2021/12/05 01:17:42;;;;;;;4.65;2.00;;;14.70;46.10;;;;;;5096936;28;20104;-38
2021/12/05 01:20:12;;;;;;;4.07;1.90;;;14.80;46.00;;;;;;5096422;28;20027;-39
2021/12/05 01:22:42;;;;;;;6.22;2.20;;;14.80;45.90;;;;;;5078844;28;20012;-38
2021/12/05 01:25:47;;;;;;;4.28;1.90;;;14.90;45.80;;;;;;5079726;28;20024;-38
2021/12/05 01:28:20;;;;;;;3.60;1.60;;;14.90;45.60;;;;;;5092154;28;20058;-38
2021/12/05 01:36:05;;;;;;;5.05;2.00;;;15.00;45.20;;;;;;5095849;28;20107;-38
2021/12/05 01:47:01;;;;;;;5.15;2.00;;;15.10;45.00;;;;;;5096270;28;20113;-38
2021/12/05 02:00:57;;;;;;;4.68;2.00;;;15.20;44.90;;;;;;5096093;28;20051;-39
2021/12/05 02:12:05;;;;;;;5.15;1.92;;;15.30;44.60;;;;;;5099061;28;20034;-40
2021/12/05 02:34:22;;;;;;;4.80;1.75;;;15.40;44.40;;;;;;5016964;28;20026;-39
2021/12/05 02:41:44;;;;;;;5.60;2.10;;;15.40;44.30;;;;;;5034051;28;20021;-39
2021/12/05 02:44:21;;;;;;;4.25;1.60;;;15.40;44.20;;;;;;5034309;28;20094;-40
2021/12/05 02:46:57;;;;;;;4.13;1.75;;;15.40;44.20;;;;;;5033836;28;20033;-39
2021/12/05 02:49:25;;;;;;;2.75;1.48;;;15.50;44.20;;;;;;5033697;28;20508;-38
2021/12/05 02:51:55;;;;;;;3.70;1.80;;;15.50;44.10;;;;;;5034016;28;20037;-38
2021/12/05 02:54:22;;;;;;;2.53;1.35;;;15.50;44.60;;;;;;5017507;28;20024;-38
2021/12/05 02:56:50;;;;;;;4.53;1.65;;;15.50;44.10;;;;;;5055649;28;20040;-40
2021/12/05 03:01:48;;;;;;;4.40;1.80;;;15.50;44.20;;;;;;5095962;28;20023;-39
2021/12/05 03:04:14;;;;;;;4.03;1.80;;;15.50;44.10;;;;;;5095879;28;20027;-39
2021/12/05 03:06:50;;;;;;;5.10;1.67;;;15.50;44.10;;;;;;5096665;28;20016;-38
2021/12/05 03:09:15;;;;;;;4.35;1.33;;;15.50;44.10;;;;;;5096001;28;20107;-38
2021/12/05 03:11:41;;;;;;;4.30;1.58;;;15.50;44.10;;;;;;5096208;28;20060;-39
2021/12/05 03:14:08;;;;;;;3.40;1.60;;;15.50;44.20;;;;;;5097641;28;20028;-39
2021/12/05 03:16:35;;;;;;;4.97;1.90;;;15.40;44.20;;;;;;5078579;28;20087;-38
2021/12/05 03:19:03;;;;;;;3.72;1.30;;;15.40;44.30;;;;;;5096391;28;20063;-38
2021/12/05 03:21:29;;;;;;;3.75;1.42;;;15.40;44.30;;;;;;5095410;28;20025;-39
2021/12/05 03:23:57;;;;;;;3.20;1.50;;;15.40;44.40;;;;;;5096399;28;20091;-39
2021/12/05 03:26:28;;;;;;;4.28;1.90;;;15.30;44.50;;;;;;5077918;28;20490;-38
2021/12/05 03:28:56;;;;;;;3.30;1.40;;;15.30;44.60;;;;;;5095932;28;20017;-38
2021/12/05 03:31:25;;;;;;;2.45;1.30;;;15.20;44.80;;;;;;5095446;28;20032;-39
2021/12/05 03:33:50;;;;;;;3.13;1.45;;;15.20;44.90;;;;;;5096258;28;20016;-39
2021/12/05 03:36:17;;;;;;;3.97;1.60;;;15.20;44.90;;;;;;5097077;28;20077;-38
2021/12/05 03:38:43;;;;;;;3.85;1.60;;;15.20;45.00;;;;;;5099923;28;20020;-40
2021/12/05 03:41:09;;;;;;;5.60;2.05;;;15.20;45.00;;;;;;5099564;28;20066;-39
2021/12/05 03:43:36;;;;;;;3.42;1.40;;;15.10;45.10;;;;;;5081989;28;20498;-38
2021/12/05 03:46:02;;;;;;;3.22;1.30;;;15.10;45.30;;;;;;5099827;28;20393;-38
2021/12/05 03:48:32;;;;;;;2.53;1.38;;;15.10;45.40;;;;;;5100110;28;20020;-39
2021/12/05 03:50:58;;;;;;;3.30;1.40;;;15.00;45.50;;;;;;5099160;28;20027;-38
2021/12/05 03:53:24;;;;;;;2.67;1.30;;;15.00;45.60;;;;;;5081054;28;20023;-38
2021/12/05 03:55:53;;;;;;;3.10;1.50;;;14.90;45.70;;;;;;5097899;28;20012;-39
2021/12/05 03:58:20;;;;;;;3.53;1.42;;;14.90;45.80;;;;;;5079780;28;20031;-38
2021/12/05 04:00:48;;;;;;;4.38;1.70;;;14.80;46.10;;;;;;5097447;28;20088;-38
2021/12/05 04:03:16;;;;;;;3.92;1.40;;;14.80;46.10;;;;;;5097994;28;20020;-38
2021/12/05 04:05:42;;;;;;;3.80;1.58;;;14.70;46.20;;;;;;5097582;28;20008;-38
2021/12/05 04:08:10;;;;;;;3.17;1.30;;;14.70;46.30;;;;;;5097669;28;20095;-38
2021/12/05 04:10:38;;;;;;;3.35;1.50;;;14.70;46.30;;;;;;5097634;28;20031;-39
2021/12/05 04:13:03;;;;;;;4.22;1.48;;;14.70;46.40;;;;;;5097607;28;20023;-38
2021/12/05 04:15:29;;;;;;;2.90;1.50;;;14.70;46.50;;;;;;5097103;28;20043;-39
2021/12/05 04:17:55;;;;;;;3.30;1.38;;;14.60;46.50;;;;;;5097444;28;20016;-38
2021/12/05 04:20:21;;;;;;;2.88;1.30;;;14.60;46.50;;;;;;5097868;28;20031;-39
2021/12/05 04:22:47;;;;;;;2.95;1.40;;;14.60;46.60;;;;;;5079091;28;20024;-40
2021/12/05 04:25:14;;;;;;;2.38;1.20;;;14.60;46.70;;;;;;5078750;28;21066;-39
2021/12/05 04:27:40;;;;;;;3.90;1.50;;;14.50;46.80;;;;;;5097052;28;20028;-38
2021/12/05 04:30:07;;;;;;;3.13;1.20;;;14.50;46.90;;;;;;5096559;28;20052;-38
2021/12/05 04:32:34;;;;;;;3.90;1.50;;;14.50;47.00;;;;;;5096494;28;20470;-38
2021/12/05 04:35:00;;;;;;;3.35;1.38;;;14.50;47.00;;;;;;5095931;28;20020;-38
2021/12/05 04:37:26;;;;;;;3.00;1.40;;;14.40;47.10;;;;;;5096150;28;20043;-38
2021/12/05 04:39:53;;;;;;;3.78;1.40;;;14.40;47.00;;;;;;5096174;28;20015;-38
2021/12/05 04:42:19;;;;;;;4.00;1.42;;;14.40;47.10;;;;;;5078711;28;20024;-37
2021/12/05 04:44:46;;;;;;;2.60;1.30;;;14.40;47.20;;;;;;5078821;28;20039;-38
2021/12/05 04:47:12;;;;;;;3.75;1.30;;;14.40;47.30;;;;;;5077493;28;20042;-38
2021/12/05 04:49:39;;;;;;;2.85;1.10;;;14.40;47.40;;;;;;5096473;28;20024;-38
2021/12/05 04:52:06;;;;;;;3.92;1.40;;;14.40;47.40;;;;;;5096048;28;20111;-38
2021/12/05 04:54:32;;;;;;;3.08;1.48;;;14.40;47.50;;;;;;5077910;28;20019;-39
2021/12/05 04:56:57;;;;;;;2.40;1.13;;;14.30;47.50;;;;;;5096399;28;20017;-38
2021/12/05 04:59:26;;;;;;;3.28;1.38;;;14.30;47.50;;;;;;5096165;28;20087;-38
2021/12/05 05:01:53;;;;;;;3.20;1.10;;;14.30;47.50;;;;;;5096311;28;20017;-38
2021/12/05 05:04:26;;;;;;;3.45;1.33;;;14.30;47.60;;;;;;5095747;28;20470;-38
2021/12/05 05:06:56;;;;;;;2.83;1.05;;;14.30;47.60;;;;;;5095745;28;20024;-38
2021/12/05 05:09:29;;;;;;;3.25;1.40;;;14.30;47.70;;;;;;5096284;28;20008;-38
2021/12/05 05:11:55;;;;;;;2.95;1.10;;;14.30;47.80;;;;;;5095946;28;20051;-38
2021/12/05 05:14:22;;;;;;;2.72;1.20;;;14.30;47.80;;;;;;5095772;28;20020;-38
2021/12/05 05:16:52;;;;;;;3.75;1.38;;;14.20;47.80;;;;;;5095764;28;20035;-38
2021/12/05 05:19:25;;;;;;;3.35;1.40;;;14.20;47.90;;;;;;5078726;28;20060;-38
2021/12/05 05:22:26;;;;;;;2.85;1.10;;;14.20;47.90;;;;;;5079119;28;20039;-39
2021/12/05 05:43:38;;;;;;;3.47;1.33;;;14.10;48.20;;;;;;5095812;28;20039;-38
2021/12/05 05:46:11;;;;;;;1.75;0.98;;;14.10;48.20;;;;;;5095999;28;20103;-38
2021/12/05 05:51:22;;;;;;;3.60;1.15;;;14.10;48.30;;;;;;5095841;28;20111;-38
2021/12/05 05:53:49;;;;;;;2.58;1.17;;;14.10;48.30;;;;;;5096138;28;20407;-39
2021/12/05 05:56:19;;;;;;;4.28;1.40;;;14.10;48.30;;;;;;5096902;28;20071;-42
2021/12/05 05:58:52;;;;;;;2.70;1.33;;;14.10;48.40;;;;;;5097634;28;20016;-38
2021/12/05 06:01:21;;;;;;;2.92;1.20;;;14.10;48.40;;;;;;5097711;28;20020;-40
2021/12/05 06:03:47;;;;;;;2.72;1.15;;;14.10;48.40;;;;;;5097949;28;20486;-39
2021/12/05 06:06:14;;;;;;;3.08;1.20;;;14.00;48.40;;;;;;5063721;28;20027;-38
2021/12/05 06:08:40;;;;;;;1.52;0.85;;;14.10;48.50;;;;;;5098349;28;20051;-38
2021/12/05 06:11:11;;;;;;;2.80;1.50;;;14.10;48.50;;;;;;5098686;28;20036;-39
2021/12/05 06:13:38;;;;;;;2.20;1.00;;;14.10;48.60;;;;;;5099908;28;20020;-39
2021/12/05 06:16:08;;;;;;;2.83;1.20;;;14.10;48.60;;;;;;5099092;28;20016;-39
2021/12/05 06:18:34;;;;;;;2.22;1.10;;;14.00;48.50;;;;;;5099336;28;20043;-39
2021/12/05 06:21:01;;;;;;;3.50;1.23;;;14.00;48.60;;;;;;5099291;28;20016;-37
2021/12/05 06:23:27;;;;;;;2.85;1.10;;;14.00;48.60;;;;;;5099322;28;20021;-38
2021/12/05 06:25:53;;;;;;;2.92;0.98;;;14.00;48.60;;;;;;5099087;28;20023;-40
2021/12/05 06:28:26;;;;;;;2.60;1.08;;;14.10;48.70;;;;;;5098275;28;20023;-38
2021/12/05 06:31:05;;;;;;;2.75;1.10;;;14.00;48.60;;;;;;5066129;28;20091;-40
2021/12/05 06:39:24;;;;;;;3.67;1.05;;;14.00;48.70;;;;;;5098584;28;20034;-38
2021/12/05 06:41:59;;;;;;;3.00;1.10;;;14.00;48.80;;;;;;5098156;28;20023;-38
2021/12/05 06:47:25;;;;;;;1.77;0.90;;;14.00;48.80;;;;;;5052998;28;20028;-38
2021/12/05 06:49:52;;;;;;;2.13;1.00;;;14.00;48.80;;;;;;5096651;28;20017;-38
2021/12/05 06:52:18;;;;;;;2.35;0.90;;;14.00;48.80;;;;;;5096684;28;20027;-38
2021/12/05 06:54:45;;;;;;;1.77;0.98;;;14.00;48.90;;;;;;5097186;28;20462;-38
2021/12/05 06:57:10;;;;;;;2.47;1.20;;;14.00;48.80;;;;;;5096308;28;20016;-38
2021/12/05 06:59:39;;;;;;;2.38;1.10;;;14.00;48.90;;;;;;5096562;28;20047;-38
2021/12/05 07:02:05;;;;;;;2.63;1.17;;;14.00;48.90;;;;;;5061104;28;20024;-39
2021/12/05 07:04:48;;;;;;;2.30;1.00;;;14.00;48.90;;;;;;5095952;28;20069;-38
2021/12/05 07:07:22;;;;;;;2.47;1.10;;;14.00;49.00;;;;;;5095921;28;20060;-37
2021/12/05 07:09:48;;;;;;;2.33;1.00;;;14.00;49.50;;;;;;5095567;28;20021;-38
2021/12/05 07:15:33;;;;;;;2.17;0.95;;;14.00;49.10;;;;;;5082531;28;20115;-38
2021/12/05 07:22:44;;;;;;;3.35;1.00;;;14.00;49.20;;;;;;5099871;28;20028;-40
2021/12/05 07:41:30;;;;;;;2.53;0.90;;;13.90;49.40;;;;;;5101040;28;20101;-40
2021/12/05 07:43:56;;;;;;;2.97;1.30;;;13.90;49.40;;;;;;5100544;28;20091;-37
2021/12/05 07:46:22;;;;;;;1.73;0.93;;;13.90;49.40;;;;;;5099355;28;20039;-39
2021/12/05 07:48:55;;;;;;;1.85;0.77;;;13.90;49.50;;;;;;5099215;28;20028;-39
2021/12/05 07:51:26;;;;;;;1.70;0.90;;;13.90;49.50;;;;;;5098830;28;20052;-38
2021/12/05 08:15:22;;;;;;;2.40;1.00;;;13.90;49.60;;;;;;5097624;28;20027;-38
2021/12/05 08:17:52;;;;;;;1.55;0.80;;;13.90;49.70;;;;;;5079183;28;20437;-37
2021/12/05 08:20:22;;;;;;;2.05;1.20;;;13.90;49.60;;;;;;5097045;28;20113;-38
2021/12/05 08:22:47;;;;;;;1.40;0.80;;;13.90;49.70;;;;;;5095303;28;20039;-38
2021/12/05 08:25:14;;;;;;;2.13;0.82;;;13.90;49.70;;;;;;5062262;28;20568;-38
2021/12/05 08:27:46;;;;;;;1.83;0.82;;;13.90;49.70;;;;;;5097097;28;20020;-38
2021/12/05 08:30:18;;;;;;;1.38;0.80;;;13.90;49.70;;;;;;5097100;28;20061;-38
2021/12/05 08:33:09;;;;;;;2.95;1.25;;;13.80;49.80;;;;;;5097418;28;20036;-38
2021/12/05 08:36:11;;;;;;;1.33;0.80;;;13.80;49.80;;;;;;5083327;28;20048;-39
2021/12/05 09:30:09;;;;;;;1.35;0.70;;;14.70;47.60;;;;;;5097466;28;20031;-39
2021/12/05 09:52:19;;;;;;;1.15;0.82;;;15.00;46.70;;;;;;5083220;28;20105;-38
2021/12/05 10:03:01;;;;;;;1.40;0.60;;;15.30;46.00;;;;;;5098131;28;20081;-38
2021/12/05 10:08:36;;;;;;;1.38;0.90;;;15.50;46.20;;;;;;5097978;28;20059;-37
2021/12/05 10:13:40;;;;;;;1.00;0.60;;;15.70;45.10;;;;;;5097842;28;20044;-38
2021/12/05 10:36:25;;;;;;;1.10;0.50;;;16.30;43.40;;;;;;5095759;28;20587;-38
2021/12/05 10:38:51;;;;;;;0.60;0.50;;;16.30;43.40;;;;;;5084262;28;20028;-39
2021/12/05 10:43:59;;;;;;;0.73;0.50;;;16.30;43.30;;;;;;5078217;28;20031;-38
2021/12/05 10:46:25;;;;;;;0.80;0.50;;;16.40;43.30;;;;;;5076292;28;20027;-38
2021/12/05 10:48:55;;;;;;;0.80;0.50;;;16.40;43.30;;;;;;5077467;28;20462;-38
2021/12/05 10:51:27;;;;;;;1.52;0.80;;;16.40;43.20;;;;;;5095158;28;20099;-38
2021/12/05 10:53:53;;;;;;;0.52;0.50;;;16.40;43.30;;;;;;5077624;28;20008;-38
2021/12/05 10:56:29;;;;;;;0.85;0.65;;;16.40;43.30;;;;;;5096454;28;20096;-39
2021/12/05 10:59:34;;;;;;;1.02;0.60;;;16.30;43.30;;;;;;5077359;28;20012;-39
2021/12/05 11:02:03;;;;;;;1.08;0.60;;;16.30;43.30;;;;;;5081782;28;20024;-38
2021/12/05 11:04:33;;;;;;;0.70;0.63;;;16.30;43.40;;;;;;5095787;28;20014;-38
2021/12/05 11:07:00;;;;;;;;;;;16.30;43.40;;;;;;5076877;28;20016;-37
2021/12/05 11:09:28;;;;;;;1.10;0.60;;;16.30;43.40;;;;;;5094362;28;19911;-39
2021/12/05 11:12:03;;;;;;;1.23;0.85;;;16.30;44.10;;;;;;5094304;28;20028;-38
2021/12/05 11:14:31;;;;;;;1.08;0.60;;;16.30;43.60;;;;;;5076490;28;20015;-38
2021/12/05 11:17:18;;;;;;;0.95;0.50;;;16.30;43.60;;;;;;5076533;28;20021;-38
2021/12/05 11:19:48;;;;;;;1.10;0.50;;;16.30;43.60;;;;;;5076411;28;20058;-38
2021/12/05 11:22:32;;;;;;;1.17;0.65;;;16.30;43.60;;;;;;5094324;28;20462;-38
2021/12/05 11:25:09;;;;;;;1.42;0.68;;;16.30;43.50;;;;;;5094228;28;20062;-38
2021/12/05 11:27:35;;;;;;;0.95;0.63;;;16.30;43.40;;;;;;5094311;28;20012;-40
2021/12/05 11:30:05;;;;;;;1.50;0.85;;;16.30;43.50;;;;;;5094366;28;20073;-37
2021/12/05 11:32:45;;;;;;;1.00;0.60;;;16.30;43.40;;;;;;5094538;28;20402;-38
2021/12/05 11:35:30;;;;;;;1.30;0.70;;;16.30;43.40;;;;;;5060429;28;20020;-38
2021/12/05 11:38:18;;;;;;;0.95;0.60;;;16.30;43.50;;;;;;5094107;28;20032;-38
2021/12/05 11:41:11;;;;;;;1.15;0.80;;;16.30;43.50;;;;;;5093980;28;20031;-38
2021/12/05 11:43:58;;;;;;;1.10;0.70;;;16.40;43.60;;;;;;5072059;28;20028;-38
2021/12/05 11:46:35;;;;;;;1.60;0.80;;;16.40;43.60;;;;;;5094165;28;20074;-37
2021/12/05 11:49:08;;;;;;;1.67;0.80;;;16.40;43.60;;;;;;5077143;28;20020;-40
2021/12/05 11:51:48;;;;;;;1.00;0.68;;;16.30;43.60;;;;;;5093909;28;20028;-38
2021/12/05 11:54:25;;;;;;;1.13;0.70;;;16.30;43.50;;;;;;5094042;28;20043;-40
2021/12/05 11:56:54;;;;;;;1.38;0.70;;;16.30;43.50;;;;;;5094567;28;20019;-38
2021/12/05 11:59:38;;;;;;;1.23;0.70;;;16.30;43.50;;;;;;5079448;28;20004;-39
2021/12/05 12:02:06;;;;;;;1.27;0.70;;;16.30;43.50;;;;;;5097649;28;20021;-39
2021/12/05 12:04:39;;;;;;;1.73;0.90;;;16.30;43.50;;;;;;5098065;28;20023;-37
2021/12/05 12:07:15;;;;;;;1.38;0.90;;;16.30;43.60;;;;;;5097299;28;20486;-38
2021/12/05 12:09:41;;;;;;;1.17;0.70;;;16.30;43.60;;;;;;5097267;28;20012;-38
2021/12/05 12:12:07;;;;;;;1.58;0.70;;;16.40;43.40;;;;;;5079474;28;20097;-37
2021/12/05 12:14:34;;;;;;;1.52;0.80;;;16.30;43.40;;;;;;5096918;28;20023;-38
2021/12/05 12:17:02;;;;;;;1.00;0.80;;;16.40;43.50;;;;;;5098031;28;20012;-38
2021/12/05 12:19:27;;;;;;;1.23;0.80;;;16.40;43.40;;;;;;5097252;28;20020;-38
2021/12/05 12:21:58;;;;;;;1.15;0.85;;;16.40;43.30;;;;;;5097551;28;20017;-38
2021/12/05 12:24:24;;;;;;;1.40;0.70;;;16.40;43.30;;;;;;5080131;28;20013;-38
2021/12/05 12:26:51;;;;;;;1.05;0.70;;;16.40;43.30;;;;;;5097190;28;20024;-38
2021/12/05 12:29:17;;;;;;;1.23;0.77;;;16.40;43.30;;;;;;5079710;28;20016;-39
2021/12/05 12:31:46;;;;;;;2.25;0.85;;;16.40;43.20;;;;;;5079252;28;20028;-39
2021/12/05 12:34:20;;;;;;;1.60;0.85;;;16.40;43.40;;;;;;5079245;28;20008;-39
2021/12/05 12:36:52;;;;;;;1.35;0.70;;;16.40;43.30;;;;;;5096778;28;20047;-38
2021/12/05 12:39:21;;;;;;;1.05;0.70;;;16.40;43.30;;;;;;5096536;28;20008;-38
2021/12/05 12:42:12;;;;;;;1.00;0.80;;;16.40;43.20;;;;;;5096543;28;20035;-38
2021/12/05 12:45:03;;;;;;;1.48;0.70;;;16.40;43.20;;;;;;5097028;28;20012;-39
2021/12/05 12:47:35;;;;;;;1.35;0.80;;;16.50;43.30;;;;;;5081213;28;20518;-39
2021/12/05 12:50:26;;;;;;;1.88;0.70;;;16.40;43.30;;;;;;5096539;28;20023;-38
2021/12/05 12:53:17;;;;;;;1.05;0.80;;;16.40;43.30;;;;;;5096438;28;20032;-38
2021/12/05 12:55:56;;;;;;;1.17;0.90;;;16.50;43.30;;;;;;5084203;28;20024;-38
2021/12/05 12:58:42;;;;;;;1.65;0.85;;;16.50;43.30;;;;;;5095951;28;20004;-39
2021/12/05 13:01:16;;;;;;;0.85;0.77;;;16.40;43.20;;;;;;5095952;28;20020;-38
2021/12/05 13:04:56;;;;;;;1.23;0.88;;;16.40;43.20;;;;;;5096164;28;20470;-38
2021/12/05 13:09:57;;;;;;;0.70;0.70;;;16.50;43.30;;;;;;5084634;28;20114;-39
2021/12/05 13:10:08;;;;;;;1.80;1.10;;;16.50;43.20;;;;;;5054350;28;20029;-38
2021/12/05 13:12:40;;;;;;;1.17;0.90;;;16.50;43.10;;;;;;5055833;28;20033;-38
2021/12/05 13:15:16;;;;;;;1.20;0.80;;;16.50;43.10;;;;;;5055525;28;20086;-38
2021/12/05 13:18:10;;;;;;;1.55;0.90;;;16.50;43.10;;;;;;5055531;28;20529;-39
2021/12/05 13:20:42;;;;;;;1.42;0.80;;;16.50;43.10;;;;;;5044184;28;20029;-38
2021/12/05 13:23:12;;;;;;;1.70;0.93;;;16.50;43.10;;;;;;5055953;28;20029;-38
2021/12/05 13:26:02;;;;;;;1.45;0.90;;;16.50;43.00;;;;;;5056120;28;20037;-38
2021/12/05 13:28:29;;;;;;;;;;;16.50;43.00;;;;;;5056673;28;20029;-39
2021/12/05 13:30:55;;;;;;;1.38;0.82;;;16.50;43.00;;;;;;5055600;28;19909;-40
2021/12/05 13:33:25;;;;;;;1.17;0.95;;;16.50;43.00;;;;;;5085628;23;20139;-40
2021/12/05 13:35:57;;;;;;;1.40;1.00;;;16.50;43.00;;;;;;5077091;28;20535;-40
2021/12/05 13:38:41;;;;;;;1.35;0.95;;;16.50;43.10;;;;;;5077048;28;20467;-41
2021/12/05 13:41:15;;;;;;;1.30;0.90;;;16.50;43.00;;;;;;5077296;28;20011;-39
2021/12/05 13:43:42;;;;;;;1.70;1.20;;;16.50;43.00;;;;;;5076573;28;20467;-38
2021/12/05 13:46:30;;;;;;;1.10;0.90;;;16.50;43.00;;;;;;5076059;28;20095;-38
2021/12/05 13:48:57;;;;;;;1.35;0.98;;;16.50;43.00;;;;;;5076342;28;20008;-38
2021/12/05 13:51:23;;;;;;;1.13;0.80;;;16.50;43.10;;;;;;5076031;28;20085;-38
2021/12/05 13:53:51;;;;;;;1.35;0.90;;;16.40;43.20;;;;;;5076153;28;20459;-39
2021/12/05 13:56:23;;;;;;;2.15;1.10;;;16.40;43.20;;;;;;5075946;28;20016;-39
2021/12/05 13:58:49;;;;;;;1.25;0.90;;;16.30;43.30;;;;;;5076566;28;20016;-42
2021/12/05 14:01:16;;;;;;;1.40;1.05;;;16.30;43.50;;;;;;5076044;28;20493;-40
2021/12/05 14:03:59;;;;;;;1.30;1.00;;;16.20;43.60;;;;;;5076071;28;20031;-38
2021/12/05 14:06:40;;;;;;;1.92;0.90;;;16.20;43.60;;;;;;5075726;28;20008;-39
2021/12/05 14:09:08;;;;;;;1.20;0.90;;;16.20;43.70;;;;;;5058038;28;20024;-38
2021/12/05 14:11:36;;;;;;;1.73;1.00;;;16.20;43.80;;;;;;5075690;28;20028;-37
2021/12/05 14:14:05;;;;;;;1.50;1.10;;;16.10;43.90;;;;;;5076567;28;20028;-39
2021/12/05 14:16:36;;;;;;;1.17;1.00;;;16.00;44.00;;;;;;5075419;28;20020;-39
2021/12/05 14:19:04;;;;;;;1.45;1.05;;;16.00;44.20;;;;;;5075265;28;20477;-40
2021/12/05 14:21:30;;;;;;;1.92;1.00;;;15.90;44.40;;;;;;5074951;28;20016;-39
2021/12/05 14:23:57;;;;;;;1.40;0.90;;;15.90;44.40;;;;;;5074232;28;20487;-38
2021/12/05 14:26:26;;;;;;;1.88;1.10;;;15.80;44.40;;;;;;5074906;28;20047;-38
2021/12/05 14:28:57;;;;;;;1.55;1.00;;;15.80;44.60;;;;;;5074292;28;20074;-38
2021/12/05 14:31:25;;;;;;;1.75;1.10;;;15.70;44.70;;;;;;5056470;28;20052;-38
2021/12/05 14:33:52;;;;;;;1.00;0.90;;;15.70;44.80;;;;;;5073898;28;20049;-38
2021/12/05 14:36:49;;;;;;;1.52;1.20;;;15.70;44.90;;;;;;5074780;28;20137;-38
2021/12/05 14:39:37;;;;;;;2.28;1.10;;;15.60;45.00;;;;;;5074867;28;20044;-39
2021/12/05 14:42:11;;;;;;;1.60;1.08;;;15.60;45.20;;;;;;5046804;28;20107;-38
2021/12/05 14:44:37;;;;;;;2.03;1.20;;;15.50;45.20;;;;;;5056512;28;20044;-38
2021/12/05 14:47:05;;;;;;;1.52;1.20;;;15.50;45.30;;;;;;5056020;28;20025;-38
2021/12/05 14:49:34;;;;;;;2.17;1.27;;;15.50;45.40;;;;;;5073663;28;20066;-37
2021/12/05 14:52:01;;;;;;;2.65;1.13;;;15.50;45.40;;;;;;5073699;28;20074;-38
2021/12/05 14:54:33;;;;;;;2.33;1.10;;;15.50;45.80;;;;;;5073899;28;20012;-38
2021/12/05 14:57:03;;;;;;;1.63;1.13;;;15.50;45.80;;;;;;5073781;28;20406;-37
2021/12/05 14:59:29;;;;;;;2.30;1.30;;;15.50;45.80;;;;;;5056009;28;20044;-39
2021/12/05 15:01:56;;;;;;;2.35;1.33;;;15.50;45.90;;;;;;5055777;28;20548;-38
2021/12/05 15:04:26;;;;;;;3.17;1.40;;;15.50;46.00;;;;;;5074160;28;20484;-38
2021/12/05 15:06:52;;;;;;;2.27;1.10;;;15.50;46.10;;;;;;5073957;28;20051;-38
2021/12/05 15:09:21;;;;;;;1.88;1.30;;;15.40;46.10;;;;;;5055729;28;20017;-37
2021/12/05 15:11:52;;;;;;;2.85;1.45;;;15.30;46.30;;;;;;5073191;28;20032;-39
2021/12/05 15:14:19;;;;;;;2.25;1.48;;;15.30;46.50;;;;;;5073858;28;20008;-37
2021/12/05 15:16:57;;;;;;;2.08;1.33;;;15.20;46.60;;;;;;5073556;28;20020;-39
2021/12/05 15:19:23;;;;;;;2.17;1.45;;;15.20;46.50;;;;;;5073539;28;20029;-37
2021/12/05 15:21:49;;;;;;;1.67;1.30;;;15.20;46.60;;;;;;5055146;28;20548;-37
2021/12/05 15:24:15;;;;;;;1.80;1.23;;;15.10;46.70;;;;;;5073327;28;20028;-37
2021/12/05 15:26:42;;;;;;;1.67;1.25;;;15.10;46.80;;;;;;5072825;28;20024;-37
2021/12/05 15:29:08;;;;;;;2.42;1.20;;;15.10;46.90;;;;;;5073230;28;20024;-37
2021/12/05 15:31:39;;;;;;;2.00;1.30;;;15.00;46.90;;;;;;5073748;28;20029;-38
2021/12/05 15:34:37;;;;;;;1.48;1.30;;;15.00;47.00;;;;;;5077050;28;20019;-37
2021/12/05 15:37:09;;;;;;;1.83;1.35;;;15.00;47.10;;;;;;5014780;28;20492;-37
2021/12/05 15:39:35;;;;;;;1.95;1.30;;;15.00;47.20;;;;;;5014946;28;20105;-37
2021/12/05 15:42:01;;;;;;;1.50;1.40;;;14.90;47.20;;;;;;5014660;28;20033;-37
2021/12/05 15:44:33;;;;;;;1.77;1.40;;;14.90;47.30;;;;;;4998235;28;20540;-37
2021/12/05 15:47:01;;;;;;;2.85;1.50;;;14.90;47.40;;;;;;5014517;28;20034;-37
2021/12/05 15:49:40;;;;;;;2.00;1.40;;;14.90;47.50;;;;;;5014451;28;20026;-37
2021/12/05 15:52:06;;;;;;;2.70;1.58;;;14.80;47.50;;;;;;5014476;28;20069;-38
2021/12/05 15:54:32;;;;;;;3.28;1.67;;;14.80;47.60;;;;;;5014244;28;20075;-37
2021/12/05 15:57:08;;;;;;;1.95;1.58;;;14.80;47.70;;;;;;5014250;28;20017;-37
2021/12/05 15:59:39;;;;;;;2.92;1.58;;;14.80;47.70;;;;;;5014170;28;20026;-37
2021/12/05 16:02:10;;;;;;;3.58;1.50;;;14.80;47.70;;;;;;4998620;28;20480;-37
2021/12/05 16:04:36;;;;;;;2.35;1.60;;;14.80;47.80;;;;;;5013909;28;20108;-37
2021/12/05 16:07:05;;;;;;;2.40;1.70;;;14.80;47.80;;;;;;5013904;28;20037;-37
2021/12/05 16:09:31;;;;;;;2.22;1.40;;;14.70;47.80;;;;;;5013837;28;20021;-37
2021/12/05 16:12:11;;;;;;;2.00;1.50;;;14.70;47.80;;;;;;5027749;28;20037;-37
2021/12/05 16:14:38;;;;;;;;;;;14.70;47.90;;;;;;5076190;28;20086;-37
2021/12/05 16:17:21;;;;;;;2.03;1.50;;;14.70;48.00;;;;;;5075707;28;19991;-39
2021/12/05 16:20:19;;;;;;;2.75;1.58;;;14.70;48.10;;;;;;5075828;28;20066;-38
2021/12/05 16:23:06;;;;;;;1.80;1.50;;;14.70;48.10;;;;;;5075478;28;20008;-38
2021/12/05 16:25:39;;;;;;;2.30;1.45;;;14.70;48.10;;;;;;5075563;28;20061;-37
2021/12/05 16:28:06;;;;;;;2.33;1.45;;;14.70;48.20;;;;;;5075463;28;20020;-37
2021/12/05 16:30:34;;;;;;;2.22;1.45;;;14.60;48.10;;;;;;5057323;28;20143;-37
2021/12/05 16:33:01;;;;;;;2.47;1.70;;;14.60;48.10;;;;;;5057541;28;20099;-38
2021/12/05 16:35:39;;;;;;;2.58;1.50;;;14.60;48.10;;;;;;5075485;28;20039;-38
2021/12/05 16:38:35;;;;;;;2.60;1.92;;;14.60;48.10;;;;;;5075073;28;20013;-37
2021/12/05 16:41:25;;;;;;;2.45;1.83;;;14.60;48.10;;;;;;5075342;28;20095;-37
2021/12/05 16:43:52;;;;;;;;;;;14.60;48.20;;;;;;5056469;28;20544;-37
2021/12/05 16:46:20;;;;;;;2.55;1.90;;;14.60;48.20;;;;;;5075005;28;19900;-38
2021/12/05 16:48:46;;;;;;;2.13;1.63;;;14.60;48.20;;;;;;5074800;28;20021;-37
2021/12/05 16:51:35;;;;;;;2.28;1.60;;;14.60;48.30;;;;;;5074934;28;20074;-37
2021/12/05 16:54:18;;;;;;;2.58;1.98;;;14.50;48.30;;;;;;5056986;28;20021;-38
2021/12/05 16:56:48;;;;;;;2.75;1.70;;;14.60;48.30;;;;;;5074962;28;20024;-37
2021/12/05 16:59:32;;;;;;;2.30;2.00;;;14.50;48.30;;;;;;5074698;28;20493;-37
2021/12/05 17:02:18;;;;;;;2.33;1.85;;;14.60;48.40;;;;;;5056721;28;20040;-38
2021/12/05 17:04:58;;;;;;;2.65;2.15;;;14.50;48.40;;;;;;5074897;28;20074;-38
2021/12/05 17:08:09;;;;;;;3.75;2.10;;;14.50;48.40;;;;;;5074568;28;20069;-38
2021/12/05 17:10:42;;;;;;;;;;;14.50;48.50;;;;;;5075357;28;20111;-39
2021/12/05 17:13:11;;;;;;;2.63;1.98;;;14.50;48.50;;;;;;5075072;28;19901;-38
2021/12/05 17:15:51;;;;;;;2.22;1.80;;;14.50;48.50;;;;;;5075523;28;20028;-37
2021/12/05 17:18:57;;;;;;;2.80;1.98;;;14.50;48.50;;;;;;5074758;28;20016;-39
2021/12/05 17:21:26;;;;;;;2.50;2.03;;;14.50;48.60;;;;;;5074556;28;20104;-38
2021/12/05 17:23:57;;;;;;;2.03;1.83;;;14.50;48.60;;;;;;5074538;28;20024;-38
2021/12/05 17:26:31;;;;;;;2.78;2.00;;;14.40;48.60;;;;;;5041145;28;20262;-38
2021/12/05 17:29:07;;;;;;;2.58;2.10;;;14.40;48.60;;;;;;5075282;28;20012;-39
2021/12/05 17:31:39;;;;;;;3.22;2.10;;;14.40;48.60;;;;;;5074856;28;20021;-37
2021/12/05 17:34:07;;;;;;;2.42;2.10;;;14.40;49.10;;;;;;5075525;28;20344;-39
2021/12/05 17:36:43;;;;;;;2.30;2.00;;;14.40;48.60;;;;;;5075540;28;20009;-38
2021/12/05 17:39:17;;;;;;;2.47;2.20;;;14.40;48.60;;;;;;5058077;28;20016;-39
2021/12/05 17:41:45;;;;;;;3.45;2.47;;;14.40;48.70;;;;;;5058542;28;20048;-38
2021/12/05 17:44:12;;;;;;;2.45;2.20;;;14.40;48.70;;;;;;5041552;28;20048;-37
2021/12/05 17:46:38;;;;;;;2.45;2.15;;;14.40;48.70;;;;;;5075790;28;20016;-38
2021/12/05 17:49:07;;;;;;;3.97;2.55;;;14.40;48.70;;;;;;5057987;28;20039;-37
2021/12/05 17:51:37;;;;;;;3.20;2.55;;;14.40;48.70;;;;;;5076093;28;20025;-38
2021/12/05 17:54:05;;;;;;;2.63;2.30;;;14.40;48.70;;;;;;5076565;28;20406;-39
2021/12/05 17:56:39;;;;;;;3.22;2.67;;;14.40;48.80;;;;;;5075767;28;20020;-39
2021/12/05 17:59:13;;;;;;;4.05;2.88;;;14.40;48.80;;;;;;5075169;28;20100;-38
2021/12/05 18:04:28;;;;;;;3.88;2.65;;;14.30;48.80;;;;;;5075203;28;20078;-44
2021/12/05 18:06:54;;;;;;;4.50;2.80;;;14.30;48.80;;;;;;5057191;28;20027;-37
2021/12/05 18:09:20;;;;;;;3.50;2.80;;;14.40;48.90;;;;;;5074639;28;20032;-37
2021/12/05 18:11:46;;;;;;;2.95;2.50;;;14.40;48.90;;;;;;5075022;28;20078;-38
2021/12/05 18:14:13;;;;;;;4.38;2.65;;;14.30;48.90;;;;;;5074173;28;20409;-40